Time;durP1;ratioP1;P1;durP2;ratioP2;P2;SDS_P1;SDS_P2;PMS_P1;PMS_P2;Temp;Humidity;BMP_temperature;BMP_pressure;BME280_temperature;BME280_humidity;BME280_pressure;Samples;Min_cycle;Max_cycle;Signal;HPM_P1;HPM_P2
2022/10/16 00:01:29;;;;;;;5.47;2.35;;;15.90;99.90;;;;;;5037806;28;20351;-70
2022/10/16 00:03:58;;;;;;;4.47;2.20;;;15.90;99.90;;;;;;5039068;28;20043;-71
2022/10/16 00:06:27;;;;;;;4.05;2.30;;;15.90;99.90;;;;;;5031239;28;20046;-69
2022/10/16 00:08:55;;;;;;;6.10;2.47;;;15.90;99.90;;;;;;5022405;28;20045;-69
2022/10/16 00:11:27;;;;;;;8.38;2.10;;;15.90;99.90;;;;;;5028740;28;20452;-69
2022/10/16 00:13:57;;;;;;;6.90;2.45;;;15.90;99.90;;;;;;5009985;28;20041;-69
2022/10/16 00:16:25;;;;;;;6.38;2.85;;;15.90;99.90;;;;;;5026864;28;20484;-68
2022/10/16 00:18:53;;;;;;;7.70;2.22;;;15.80;99.90;;;;;;5031081;28;20128;-68
2022/10/16 00:21:23;;;;;;;6.00;2.15;;;15.80;99.90;;;;;;5028991;28;20427;-68
2022/10/16 00:24:10;;;;;;;5.40;2.42;;;15.90;99.90;;;;;;5022602;28;20104;-69
2022/10/16 00:26:39;;;;;;;5.43;2.40;;;15.90;99.90;;;;;;5029312;28;20505;-69
2022/10/16 00:29:07;;;;;;;6.13;4.10;;;15.80;99.90;;;;;;5029446;28;20496;-68
2022/10/16 00:31:35;;;;;;;8.93;3.05;;;15.90;99.90;;;;;;5027812;28;20057;-69
2022/10/16 00:34:02;;;;;;;7.82;2.53;;;15.80;99.90;;;;;;5034252;28;20045;-69
2022/10/16 00:36:30;;;;;;;4.85;2.72;;;15.90;99.90;;;;;;5002940;28;20053;-69
2022/10/16 00:39:00;;;;;;;5.15;2.47;;;15.90;99.90;;;;;;5039516;28;20056;-69
2022/10/16 00:41:33;;;;;;;5.13;2.72;;;15.80;99.90;;;;;;5031174;28;20132;-70
2022/10/16 00:44:03;;;;;;;5.22;2.38;;;15.80;99.90;;;;;;5029170;28;20101;-69
2022/10/16 00:46:34;;;;;;;4.60;2.50;;;15.80;99.90;;;;;;5013191;28;20140;-69
2022/10/16 00:49:16;;;;;;;4.90;2.70;;;15.90;99.90;;;;;;5023082;28;20045;-69
2022/10/16 00:51:50;;;;;;;6.05;2.50;;;15.80;99.90;;;;;;5026216;28;20054;-70
2022/10/16 00:54:22;;;;;;;6.13;2.58;;;15.80;99.90;;;;;;5027671;28;20103;-69
2022/10/16 00:56:50;;;;;;;5.43;2.75;;;15.80;99.90;;;;;;5027964;28;20049;-70
2022/10/16 00:59:26;;;;;;;7.15;2.85;;;15.80;99.90;;;;;;5012493;28;20050;-69
2022/10/16 01:01:55;;;;;;;5.15;2.47;;;15.90;99.90;;;;;;5049365;28;20041;-69
2022/10/16 01:04:24;;;;;;;6.18;2.83;;;15.90;99.90;;;;;;5040598;28;20053;-69
2022/10/16 01:07:24;;;;;;;4.63;2.30;;;15.90;99.90;;;;;;5005801;28;20509;-69
2022/10/16 01:10:07;;;;;;;8.43;2.80;;;15.80;99.90;;;;;;5018144;28;20096;-69
2022/10/16 01:12:42;;;;;;;7.95;2.60;;;15.80;99.90;;;;;;5029543;28;20129;-69
2022/10/16 01:15:16;;;;;;;4.22;2.40;;;15.70;99.90;;;;;;5015515;28;20046;-69
2022/10/16 01:17:58;;;;;;;4.85;2.67;;;15.70;99.90;;;;;;5029150;28;20072;-69
2022/10/16 01:20:39;;;;;;;7.67;2.53;;;15.60;99.90;;;;;;5018147;28;20571;-69
2022/10/16 01:23:18;;;;;;;4.95;2.20;;;15.60;99.90;;;;;;5020166;28;20293;-69
2022/10/16 01:26:00;;;;;;;7.50;2.50;;;15.70;99.90;;;;;;5029207;28;20482;-70
2022/10/16 01:28:38;;;;;;;6.78;2.83;;;15.70;99.90;;;;;;5030498;28;20128;-69
2022/10/16 01:31:06;;;;;;;4.20;2.55;;;15.60;99.90;;;;;;5009720;28;20073;-69
2022/10/16 01:33:42;;;;;;;8.52;2.67;;;15.60;99.90;;;;;;5027623;28;20053;-69
2022/10/16 01:36:16;;;;;;;8.30;2.65;;;15.60;99.90;;;;;;5017384;28;20431;-69
2022/10/16 01:38:49;;;;;;;4.93;2.20;;;15.60;99.90;;;;;;5017938;28;20148;-70
2022/10/16 01:41:27;;;;;;;6.72;2.75;;;15.60;99.90;;;;;;5017443;28;20049;-70
2022/10/16 01:44:13;;;;;;;4.75;2.97;;;15.60;99.90;;;;;;5045127;28;20049;-70
2022/10/16 01:46:43;;;;;;;7.03;2.70;;;15.60;99.90;;;;;;5028962;28;20468;-70
2022/10/16 01:49:13;;;;;;;5.65;2.65;;;15.60;99.90;;;;;;5027833;28;20045;-69
2022/10/16 01:51:44;;;;;;;8.00;2.55;;;15.60;99.90;;;;;;5026813;28;20586;-69
2022/10/16 01:54:13;;;;;;;9.57;3.03;;;15.60;99.90;;;;;;5023887;28;20042;-69
2022/10/16 01:56:42;;;;;;;4.57;2.20;;;15.60;99.90;;;;;;5018145;28;20056;-70
2022/10/16 01:59:16;;;;;;;8.65;2.38;;;15.60;99.90;;;;;;5012776;28;20049;-69
2022/10/16 02:01:49;;;;;;;4.38;2.38;;;15.70;99.90;;;;;;5028270;28;20068;-70
2022/10/16 02:04:21;;;;;;;5.80;2.63;;;15.70;99.90;;;;;;5029277;28;20518;-69
2022/10/16 02:06:48;;;;;;;;;;;15.80;99.90;;;;;;5012789;28;20049;-69
2022/10/16 02:09:16;;;;;;;8.32;2.70;;;15.80;99.90;;;;;;5027364;28;19928;-69
2022/10/16 02:11:44;;;;;;;4.88;2.20;;;15.80;99.90;;;;;;5031781;28;20037;-69
2022/10/16 02:14:12;;;;;;;11.05;2.78;;;15.70;99.90;;;;;;5035934;28;20507;-69
2022/10/16 02:16:44;;;;;;;4.25;2.50;;;15.70;99.90;;;;;;5028509;28;20452;-69
2022/10/16 02:19:14;;;;;;;8.27;2.35;;;15.70;99.90;;;;;;5010868;28;20050;-71
2022/10/16 02:22:04;;;;;;;5.55;2.75;;;15.70;99.90;;;;;;5021573;28;20054;-69
2022/10/16 02:25:04;;;;;;;6.82;2.47;;;15.70;99.90;;;;;;5024619;28;20052;-69
2022/10/16 02:27:46;;;;;;;6.10;2.22;;;15.60;99.90;;;;;;5024774;28;20134;-69
2022/10/16 02:30:35;;;;;;;7.75;2.22;;;15.60;99.90;;;;;;5038671;28;20041;-69
2022/10/16 02:33:05;;;;;;;6.90;2.28;;;15.70;99.90;;;;;;5025668;28;20041;-69
2022/10/16 02:35:33;;;;;;;8.68;2.65;;;15.60;99.90;;;;;;5029108;28;20057;-69
2022/10/16 02:38:01;;;;;;;5.53;2.10;;;15.60;99.90;;;;;;5039925;28;20150;-69
2022/10/16 02:40:29;;;;;;;4.30;2.17;;;15.60;99.90;;;;;;5037606;28;20492;-69
2022/10/16 02:42:56;;;;;;;7.85;2.70;;;15.60;99.90;;;;;;5032864;28;20041;-70
2022/10/16 02:45:24;;;;;;;3.25;2.03;;;15.60;99.90;;;;;;5027962;28;20054;-69
2022/10/16 02:47:51;;;;;;;6.63;2.35;;;15.60;99.90;;;;;;5030892;28;20515;-70
2022/10/16 02:50:18;;;;;;;5.60;2.35;;;15.60;99.90;;;;;;5030363;28;20060;-69
2022/10/16 02:52:46;;;;;;;5.85;2.33;;;15.70;99.90;;;;;;5032191;28;20559;-69
2022/10/16 02:55:13;;;;;;;8.82;2.33;;;15.70;99.90;;;;;;5012110;28;20083;-69
2022/10/16 02:57:41;;;;;;;3.83;2.22;;;15.70;99.90;;;;;;5028759;28;20084;-69
2022/10/16 03:00:11;;;;;;;6.82;2.55;;;15.60;99.90;;;;;;5032670;28;20048;-70
2022/10/16 03:02:38;;;;;;;5.88;2.33;;;15.60;99.90;;;;;;5031011;28;20045;-70
2022/10/16 03:05:06;;;;;;;6.00;2.20;;;15.60;99.90;;;;;;5030906;28;20408;-70
2022/10/16 03:07:34;;;;;;;5.68;2.20;;;15.60;99.90;;;;;;5032147;28;20051;-69
2022/10/16 03:10:02;;;;;;;6.35;2.40;;;15.60;99.90;;;;;;5028014;28;20033;-69
2022/10/16 03:12:29;;;;;;;8.55;2.33;;;15.60;99.90;;;;;;5027517;28;20499;-69
2022/10/16 03:14:57;;;;;;;5.65;2.22;;;15.50;99.90;;;;;;5033114;28;20470;-70
2022/10/16 03:17:25;;;;;;;6.55;2.30;;;15.50;99.90;;;;;;5031924;28;20577;-70
2022/10/16 03:19:53;;;;;;;6.00;2.25;;;15.50;99.90;;;;;;5026061;28;20056;-69
2022/10/16 03:22:20;;;;;;;7.30;2.50;;;15.50;99.90;;;;;;5025662;28;20535;-69
2022/10/16 03:24:47;;;;;;;8.38;2.60;;;15.50;99.90;;;;;;5027939;28;20053;-69
2022/10/16 03:27:15;;;;;;;6.35;2.42;;;15.50;99.90;;;;;;5018046;28;20129;-69
2022/10/16 03:29:42;;;;;;;7.60;2.15;;;15.40;99.90;;;;;;5029621;28;20045;-69
2022/10/16 03:32:09;;;;;;;6.55;2.30;;;15.40;99.90;;;;;;5029864;28;20479;-69
2022/10/16 03:34:36;;;;;;;5.07;2.60;;;15.50;99.90;;;;;;5038202;28;20045;-69
2022/10/16 03:37:04;;;;;;;5.57;2.40;;;15.40;99.90;;;;;;5040612;28;20619;-70
2022/10/16 03:39:31;;;;;;;5.30;2.50;;;15.40;99.90;;;;;;5041441;28;20052;-70
2022/10/16 03:41:58;;;;;;;7.07;2.28;;;15.40;99.90;;;;;;5030740;28;20061;-69
2022/10/16 03:44:26;;;;;;;6.55;2.63;;;15.40;99.90;;;;;;5031435;28;20044;-70
2022/10/16 03:46:53;;;;;;;6.80;2.20;;;15.40;99.90;;;;;;5029225;28;20037;-69
2022/10/16 03:49:20;;;;;;;4.35;2.33;;;15.40;99.90;;;;;;5030680;28;20084;-70
2022/10/16 03:51:47;;;;;;;5.38;2.38;;;15.40;99.90;;;;;;5011183;28;20069;-70
2022/10/16 03:54:15;;;;;;;4.28;2.40;;;15.40;99.90;;;;;;5027592;28;20049;-69
2022/10/16 03:56:42;;;;;;;4.95;2.28;;;15.40;99.90;;;;;;5028664;28;20099;-69
2022/10/16 03:59:09;;;;;;;3.60;2.17;;;15.40;99.90;;;;;;5031094;28;20123;-70
2022/10/16 04:01:37;;;;;;;8.02;2.30;;;15.40;99.90;;;;;;5029174;28;20056;-70
2022/10/16 04:04:04;;;;;;;4.00;2.53;;;15.40;99.90;;;;;;5030411;28;20073;-69
2022/10/16 04:06:31;;;;;;;4.70;2.70;;;15.40;99.90;;;;;;5028872;28;20050;-70
2022/10/16 04:08:58;;;;;;;9.75;2.50;;;15.40;99.90;;;;;;5030701;28;20534;-69
2022/10/16 04:11:26;;;;;;;4.10;2.00;;;15.40;99.90;;;;;;5031208;28;20129;-69
2022/10/16 04:13:53;;;;;;;3.72;1.85;;;15.40;99.90;;;;;;5025187;28;20609;-69
2022/10/16 04:16:20;;;;;;;6.18;2.08;;;15.30;99.90;;;;;;5026002;28;20468;-69
2022/10/16 04:18:48;;;;;;;6.20;2.42;;;15.30;99.90;;;;;;5029707;28;20356;-69
2022/10/16 04:21:15;;;;;;;5.85;2.47;;;15.40;99.90;;;;;;5028920;28;20160;-70
2022/10/16 04:23:43;;;;;;;6.43;2.28;;;15.40;99.90;;;;;;5022084;28;20077;-70
2022/10/16 04:26:10;;;;;;;6.47;2.40;;;15.40;99.90;;;;;;5031565;28;20044;-69
2022/10/16 04:28:37;;;;;;;5.28;2.20;;;15.40;99.90;;;;;;5030537;28;20385;-70
2022/10/16 04:31:06;;;;;;;6.18;2.55;;;15.40;99.90;;;;;;5029399;28;20522;-69
2022/10/16 04:33:33;;;;;;;5.07;2.47;;;15.50;99.90;;;;;;5029808;28;20038;-68
2022/10/16 04:36:02;;;;;;;6.68;2.28;;;15.40;99.90;;;;;;5034454;28;20060;-70
2022/10/16 04:38:30;;;;;;;5.18;2.53;;;15.40;99.90;;;;;;5028343;28;20051;-70
2022/10/16 04:40:58;;;;;;;4.25;2.42;;;15.50;99.90;;;;;;5023509;28;20424;-70
2022/10/16 04:43:25;;;;;;;3.90;2.15;;;15.50;99.90;;;;;;5029765;28;20045;-70
2022/10/16 04:45:54;;;;;;;6.60;2.30;;;15.50;99.90;;;;;;5006662;28;20044;-70
2022/10/16 04:48:22;;;;;;;8.00;2.80;;;15.50;99.90;;;;;;5046445;28;20486;-69
2022/10/16 04:50:49;;;;;;;4.20;2.40;;;15.50;99.90;;;;;;5028224;28;20072;-69
2022/10/16 04:53:21;;;;;;;;;;;15.40;99.90;;;;;;5028543;28;20109;-69
2022/10/16 04:55:48;;;;;;;7.00;2.40;;;15.40;99.90;;;;;;5023022;28;19929;-69
2022/10/16 04:58:17;;;;;;;7.30;2.47;;;15.40;99.90;;;;;;5027745;28;20041;-70
2022/10/16 05:00:45;;;;;;;12.98;2.80;;;15.40;99.90;;;;;;5023091;28;20156;-70
2022/10/16 05:03:13;;;;;;;4.45;2.40;;;15.40;99.90;;;;;;5024849;28;20399;-69
2022/10/16 05:05:45;;;;;;;6.38;2.42;;;15.40;99.90;;;;;;5014214;28;20281;-69
2022/10/16 05:08:13;;;;;;;4.33;2.30;;;15.40;99.90;;;;;;5028732;28;20038;-71
2022/10/16 05:10:42;;;;;;;5.22;2.13;;;15.30;99.90;;;;;;5022587;28;20301;-69
2022/10/16 05:13:14;;;;;;;6.28;2.65;;;15.30;99.90;;;;;;5028366;28;20425;-69
2022/10/16 05:15:48;;;;;;;4.90;2.03;;;15.30;99.90;;;;;;5020286;28;20041;-69
2022/10/16 05:18:16;;;;;;;6.93;2.90;;;15.30;99.90;;;;;;5020453;28;20128;-69
2022/10/16 05:20:43;;;;;;;4.47;2.10;;;15.30;99.90;;;;;;5026903;28;20030;-70
2022/10/16 05:23:11;;;;;;;6.15;2.20;;;15.30;99.90;;;;;;5024541;28;20045;-70
2022/10/16 05:25:39;;;;;;;4.20;2.38;;;15.30;99.90;;;;;;5029234;28;20053;-69
2022/10/16 05:28:07;;;;;;;6.28;2.55;;;15.30;99.90;;;;;;5029451;28;20095;-69
2022/10/16 05:30:36;;;;;;;7.50;2.80;;;15.20;99.90;;;;;;5027902;28;20029;-69
2022/10/16 05:33:04;;;;;;;6.07;3.10;;;15.20;99.90;;;;;;5030319;28;20057;-69
2022/10/16 05:35:31;;;;;;;6.63;3.75;;;15.30;99.90;;;;;;5010192;28;20037;-70
2022/10/16 05:37:59;;;;;;;8.55;3.22;;;15.30;99.90;;;;;;5027675;28;20624;-69
2022/10/16 05:40:26;;;;;;;8.10;4.45;;;15.40;99.90;;;;;;5027761;28;20045;-69
2022/10/16 05:42:56;;;;;;;6.82;3.60;;;15.40;99.90;;;;;;5028049;28;20454;-69
2022/10/16 05:45:24;;;;;;;5.30;2.42;;;15.40;99.90;;;;;;5028500;28;20110;-69
2022/10/16 05:47:51;;;;;;;5.05;2.25;;;15.40;99.90;;;;;;5024145;28;20261;-69
2022/10/16 05:50:18;;;;;;;5.55;2.55;;;15.40;99.90;;;;;;5025564;28;20048;-70
2022/10/16 05:52:46;;;;;;;7.10;2.63;;;15.50;99.90;;;;;;5027203;28;20387;-70
2022/10/16 05:55:13;;;;;;;5.60;2.50;;;15.40;99.90;;;;;;5024354;28;20064;-70
2022/10/16 05:57:40;;;;;;;5.75;2.88;;;15.40;99.90;;;;;;5028600;28;20060;-69
2022/10/16 06:00:11;;;;;;;6.68;2.70;;;15.40;99.90;;;;;;5024131;28;20041;-70
2022/10/16 06:02:38;;;;;;;6.10;2.38;;;15.50;99.90;;;;;;5008126;28;20103;-70
2022/10/16 06:05:06;;;;;;;7.57;3.20;;;15.50;99.90;;;;;;5028346;28;20037;-70
2022/10/16 06:07:36;;;;;;;4.50;2.35;;;15.50;99.90;;;;;;5030225;28;20433;-70
2022/10/16 06:10:05;;;;;;;4.30;2.33;;;15.50;99.90;;;;;;5046945;28;20045;-70
2022/10/16 06:12:32;;;;;;;6.82;2.30;;;15.50;99.90;;;;;;5032134;28;20637;-70
2022/10/16 06:15:01;;;;;;;6.25;2.65;;;15.50;99.90;;;;;;5032404;28;20523;-69
2022/10/16 06:17:28;;;;;;;12.25;3.97;;;15.50;99.90;;;;;;5032363;28;20427;-70
2022/10/16 06:19:56;;;;;;;6.88;3.08;;;15.60;99.90;;;;;;5031839;28;20046;-70
2022/10/16 06:22:23;;;;;;;4.85;2.60;;;15.60;99.90;;;;;;5032928;28;20124;-70
2022/10/16 06:24:50;;;;;;;5.55;2.17;;;15.60;99.90;;;;;;5033056;28;20048;-69
2022/10/16 06:27:18;;;;;;;5.93;2.47;;;15.70;99.90;;;;;;5030204;28;20044;-69
2022/10/16 06:29:45;;;;;;;8.57;2.63;;;15.70;99.90;;;;;;5010783;28;20045;-70
2022/10/16 06:32:12;;;;;;;4.50;2.42;;;15.80;99.90;;;;;;5024183;28;20522;-70
2022/10/16 06:34:40;;;;;;;4.90;2.35;;;15.80;99.90;;;;;;5032329;28;20056;-70
2022/10/16 06:37:10;;;;;;;6.00;2.40;;;15.90;99.90;;;;;;5028406;28;20068;-70
2022/10/16 06:39:37;;;;;;;6.80;2.70;;;15.90;99.90;;;;;;5030902;28;20491;-70
2022/10/16 06:42:04;;;;;;;10.80;2.80;;;16.00;99.90;;;;;;5025932;28;20059;-70
2022/10/16 06:44:35;;;;;;;6.40;2.50;;;16.00;99.90;;;;;;5029909;28;20057;-69
2022/10/16 06:47:03;;;;;;;7.03;2.45;;;16.10;99.90;;;;;;5031400;28;20065;-69
2022/10/16 06:49:31;;;;;;;5.85;3.00;;;16.20;99.90;;;;;;5031652;28;20061;-69
2022/10/16 06:51:58;;;;;;;7.70;3.00;;;16.20;99.90;;;;;;5032469;28;20052;-70
2022/10/16 06:54:25;;;;;;;5.63;2.70;;;16.20;99.90;;;;;;5031141;28;20373;-71
2022/10/16 06:56:54;;;;;;;8.40;2.65;;;16.20;99.90;;;;;;5031405;28;20124;-70
2022/10/16 06:59:22;;;;;;;4.55;2.42;;;16.20;99.90;;;;;;5029639;28;20519;-71
2022/10/16 07:01:49;;;;;;;6.00;2.63;;;16.20;99.90;;;;;;5026224;28;20050;-70
2022/10/16 07:04:16;;;;;;;4.95;2.83;;;16.20;99.90;;;;;;5014644;28;20088;-71
2022/10/16 07:06:43;;;;;;;9.32;2.72;;;16.20;99.90;;;;;;5013114;28;20140;-69
2022/10/16 07:09:11;;;;;;;10.35;2.70;;;16.20;99.90;;;;;;5025552;28;20045;-69
2022/10/16 07:11:39;;;;;;;6.35;2.60;;;16.30;99.90;;;;;;5029419;28;20708;-69
2022/10/16 07:14:16;;;;;;;5.97;3.38;;;16.30;99.90;;;;;;5027035;28;20046;-69
2022/10/16 07:16:44;;;;;;;7.47;2.80;;;16.30;99.90;;;;;;5012390;28;20057;-69
2022/10/16 07:19:14;;;;;;;4.22;2.30;;;16.40;99.90;;;;;;5031672;28;20439;-70
2022/10/16 07:21:42;;;;;;;7.38;2.78;;;16.40;99.90;;;;;;5033080;28;20049;-69
2022/10/16 07:24:14;;;;;;;6.47;3.10;;;16.50;99.90;;;;;;5023150;28;20034;-70
2022/10/16 07:26:44;;;;;;;6.45;2.50;;;16.50;99.90;;;;;;5025703;28;20113;-70
2022/10/16 07:29:14;;;;;;;8.77;2.88;;;16.50;99.90;;;;;;5017303;28;20404;-71
2022/10/16 07:31:41;;;;;;;7.18;2.42;;;16.60;99.90;;;;;;5014308;28;20513;-72
2022/10/16 07:34:11;;;;;;;6.13;2.70;;;16.60;99.90;;;;;;5023542;28;20559;-71
2022/10/16 07:36:38;;;;;;;5.30;2.75;;;16.60;99.90;;;;;;5019394;28;20132;-70
2022/10/16 07:39:06;;;;;;;7.03;3.25;;;16.60;99.90;;;;;;5032103;28;20053;-72
2022/10/16 07:41:36;;;;;;;6.85;2.50;;;16.70;99.90;;;;;;5024263;28;20511;-72
2022/10/16 07:44:04;;;;;;;11.35;3.78;;;16.70;99.90;;;;;;5024380;28;20064;-69
2022/10/16 07:46:33;;;;;;;9.38;3.47;;;16.70;99.90;;;;;;5014460;28;20067;-70
2022/10/16 07:49:00;;;;;;;9.60;3.38;;;16.70;99.90;;;;;;5030402;28;20029;-70
2022/10/16 07:51:28;;;;;;;6.05;3.08;;;16.80;99.90;;;;;;5030783;28;20500;-71
2022/10/16 07:53:55;;;;;;;8.27;3.97;;;16.80;99.90;;;;;;5027353;28;20029;-70
2022/10/16 07:56:22;;;;;;;9.50;4.30;;;17.00;99.90;;;;;;5030680;28;20049;-69
2022/10/16 07:58:51;;;;;;;6.10;3.20;;;17.00;99.90;;;;;;5024282;28;20046;-70
2022/10/16 08:01:19;;;;;;;9.93;2.92;;;17.10;99.90;;;;;;5018536;28;20048;-70
2022/10/16 08:03:49;;;;;;;7.93;3.72;;;17.20;99.90;;;;;;5014137;28;20864;-71
2022/10/16 08:06:17;;;;;;;6.88;2.88;;;17.20;99.90;;;;;;5018364;28;20459;-70
2022/10/16 08:08:50;;;;;;;7.88;3.38;;;17.20;99.90;;;;;;5017062;28;20038;-70
2022/10/16 08:11:17;;;;;;;8.65;5.40;;;17.30;99.90;;;;;;5014969;28;20386;-71
2022/10/16 08:13:45;;;;;;;7.03;2.70;;;17.40;99.90;;;;;;5019335;28;20039;-70
2022/10/16 08:16:12;;;;;;;11.30;2.83;;;17.40;99.90;;;;;;5018999;28;20049;-71
2022/10/16 08:18:41;;;;;;;6.35;2.85;;;17.40;99.90;;;;;;5025005;28;20053;-70
2022/10/16 08:21:13;;;;;;;7.38;2.28;;;17.30;99.90;;;;;;5023739;28;20038;-70
2022/10/16 08:23:48;;;;;;;6.47;3.08;;;17.40;99.90;;;;;;5032969;28;20072;-70
2022/10/16 08:26:25;;;;;;;6.00;3.80;;;17.40;99.90;;;;;;5025376;28;20061;-70
2022/10/16 08:28:53;;;;;;;7.50;3.90;;;17.40;99.90;;;;;;5018211;28;20132;-70
2022/10/16 08:31:21;;;;;;;7.85;3.88;;;17.50;99.90;;;;;;5020809;28;20488;-70
2022/10/16 08:33:49;;;;;;;5.72;2.60;;;17.60;99.90;;;;;;5029157;28;20381;-70
2022/10/16 08:36:16;;;;;;;4.78;2.72;;;17.70;99.90;;;;;;5042229;28;20045;-70
2022/10/16 08:38:47;;;;;;;6.35;2.80;;;17.80;99.90;;;;;;5022491;28;20096;-70
2022/10/16 08:41:47;;;;;;;5.63;2.70;;;18.00;99.90;;;;;;5019292;28;20060;-70
2022/10/16 08:44:39;;;;;;;7.32;2.88;;;18.10;99.90;;;;;;5042593;28;20056;-70
2022/10/16 08:47:06;;;;;;;6.38;3.78;;;18.20;99.90;;;;;;5027558;28;20073;-71
2022/10/16 08:49:33;;;;;;;5.95;3.50;;;18.40;99.90;;;;;;5028128;28;20053;-70
2022/10/16 08:52:01;;;;;;;5.93;3.20;;;18.40;99.90;;;;;;5027653;28;20420;-70
2022/10/16 08:54:46;;;;;;;7.07;3.05;;;18.50;99.90;;;;;;5031021;28;20212;-70
2022/10/16 08:57:22;;;;;;;6.13;3.08;;;18.50;99.90;;;;;;5026809;28;20399;-70
2022/10/16 08:59:52;;;;;;;10.00;3.30;;;18.70;99.90;;;;;;5030653;28;20582;-71
2022/10/16 09:02:55;;;;;;;8.70;5.40;;;18.80;99.90;;;;;;5021228;28;20445;-70
2022/10/16 09:05:38;;;;;;;5.53;2.90;;;19.00;99.90;;;;;;5016854;28;20046;-70
2022/10/16 09:08:14;;;;;;;7.03;3.35;;;19.10;99.90;;;;;;5026819;28;20049;-70
2022/10/16 09:11:03;;;;;;;6.82;2.70;;;19.20;99.90;;;;;;5025565;28;20514;-70
2022/10/16 09:13:52;;;;;;;5.53;2.58;;;19.20;99.90;;;;;;5023087;28;20037;-69
2022/10/16 09:16:27;;;;;;;4.72;2.60;;;19.10;99.90;;;;;;5027674;28;20241;-70
2022/10/16 09:19:08;;;;;;;6.60;3.15;;;19.30;99.90;;;;;;5028499;28;20053;-70
2022/10/16 09:21:42;;;;;;;6.32;3.03;;;19.50;99.90;;;;;;5011041;28;20060;-69
2022/10/16 09:24:18;;;;;;;6.97;3.15;;;19.60;99.90;;;;;;5027999;28;20048;-69
2022/10/16 09:26:47;;;;;;;9.45;2.97;;;19.50;99.90;;;;;;5008753;28;20136;-70
2022/10/16 09:29:19;;;;;;;8.02;2.72;;;19.40;99.90;;;;;;5003039;28;20391;-70
2022/10/16 09:31:48;;;;;;;8.95;2.65;;;19.40;99.90;;;;;;5011746;28;20069;-70
2022/10/16 09:34:39;;;;;;;4.55;2.30;;;19.30;99.90;;;;;;5028804;28;20036;-70
2022/10/16 09:37:16;;;;;;;7.15;2.55;;;19.10;99.90;;;;;;5011018;28;20068;-70
2022/10/16 09:39:47;;;;;;;6.90;2.30;;;18.90;99.90;;;;;;5027813;28;20486;-69
2022/10/16 09:42:23;;;;;;;5.72;2.40;;;18.70;99.90;;;;;;5028637;28;20061;-69
2022/10/16 09:44:53;;;;;;;7.93;2.30;;;18.70;99.90;;;;;;5023728;28;20733;-69
2022/10/16 09:47:24;;;;;;;5.93;2.35;;;18.60;99.90;;;;;;5024100;28;20068;-71
2022/10/16 09:50:06;;;;;;;4.95;2.20;;;18.50;99.90;;;;;;5027975;28;20421;-70
2022/10/16 09:52:33;;;;;;;6.15;2.70;;;18.50;99.90;;;;;;5027886;28;20045;-71
2022/10/16 09:55:17;;;;;;;4.05;2.40;;;18.40;99.90;;;;;;5027069;28;20061;-70
2022/10/16 09:57:55;;;;;;;4.20;2.30;;;18.40;99.90;;;;;;5028510;28;20495;-70
2022/10/16 10:00:25;;;;;;;6.43;3.42;;;18.40;99.90;;;;;;5028526;28;20042;-70
2022/10/16 10:02:54;;;;;;;4.95;2.83;;;18.40;99.90;;;;;;5026774;28;20049;-69
2022/10/16 10:05:29;;;;;;;3.53;2.25;;;18.50;99.90;;;;;;5027292;28;20056;-69
2022/10/16 10:08:05;;;;;;;9.50;2.88;;;18.80;99.90;;;;;;5023770;28;20380;-70
2022/10/16 10:10:41;;;;;;;8.93;2.38;;;19.20;99.90;;;;;;5011539;28;20042;-69
2022/10/16 10:13:24;;;;;;;5.97;2.53;;;19.30;99.90;;;;;;5011993;28;20554;-68
2022/10/16 10:15:53;;;;;;;5.65;2.70;;;19.50;99.90;;;;;;5021452;28;20041;-69
2022/10/16 10:18:23;;;;;;;5.82;2.55;;;19.70;99.90;;;;;;5008249;28;20140;-69
2022/10/16 10:20:59;;;;;;;5.03;2.80;;;20.00;99.90;;;;;;5020393;28;20041;-69
2022/10/16 10:23:29;;;;;;;6.18;2.50;;;20.30;99.90;;;;;;5014710;28;20048;-69
2022/10/16 10:26:03;;;;;;;13.77;3.58;;;20.40;99.90;;;;;;5027206;28;20059;-70
2022/10/16 10:28:49;;;;;;;6.00;2.92;;;20.40;99.90;;;;;;5029259;28;20412;-69
2022/10/16 10:31:38;;;;;;;6.05;3.20;;;20.40;99.90;;;;;;5035227;28;20058;-69
2022/10/16 10:34:43;;;;;;;7.25;2.80;;;20.50;99.90;;;;;;5015058;28;20068;-69
2022/10/16 10:37:26;;;;;;;7.30;2.78;;;20.50;99.90;;;;;;5026992;28;20053;-69
2022/10/16 10:40:09;;;;;;;5.75;3.28;;;20.50;99.90;;;;;;5042993;28;20051;-69
2022/10/16 10:42:50;;;;;;;9.00;3.63;;;20.60;99.90;;;;;;5025114;28;20067;-70
2022/10/16 10:45:18;;;;;;;6.85;3.45;;;20.80;99.90;;;;;;5042179;28;20049;-70
2022/10/16 10:48:04;;;;;;;7.00;3.40;;;20.90;99.90;;;;;;5027636;28;20084;-70
2022/10/16 10:51:16;;;;;;;6.07;3.47;;;21.00;99.90;;;;;;5027472;28;20048;-70
2022/10/16 10:53:49;;;;;;;4.30;3.08;;;21.20;99.90;;;;;;5008699;28;20069;-70
2022/10/16 10:56:49;;;;;;;5.68;2.90;;;21.30;99.90;;;;;;5026311;28;20041;-70
2022/10/16 10:59:46;;;;;;;5.15;2.83;;;21.20;99.90;;;;;;5030973;28;20118;-69
2022/10/16 11:02:46;;;;;;;4.05;2.63;;;21.30;99.90;;;;;;5032286;28;20449;-69
2022/10/16 11:05:30;;;;;;;6.13;3.17;;;21.20;99.90;;;;;;5052563;28;20054;-70
2022/10/16 11:08:06;;;;;;;4.57;3.00;;;21.20;99.90;;;;;;5057822;28;20044;-69
2022/10/16 11:10:42;;;;;;;6.75;2.92;;;21.30;99.90;;;;;;5029443;28;20081;-68
2022/10/16 11:13:35;;;;;;;6.63;3.40;;;21.30;99.90;;;;;;5046639;28;20041;-68
2022/10/16 11:16:29;;;;;;;8.30;3.58;;;21.40;99.90;;;;;;5066133;28;20059;-69
2022/10/16 11:19:03;;;;;;;4.45;3.40;;;21.50;99.90;;;;;;5027341;28;20057;-70
2022/10/16 11:21:40;;;;;;;11.75;3.20;;;21.60;99.90;;;;;;5015991;28;20123;-70
2022/10/16 11:24:18;;;;;;;7.47;2.65;;;21.70;99.90;;;;;;5049100;28;20048;-70
2022/10/16 11:26:50;;;;;;;7.22;3.40;;;21.80;99.90;;;;;;5049800;28;20092;-68
2022/10/16 11:29:25;;;;;;;6.88;3.17;;;21.80;99.90;;;;;;5058084;28;20643;-69
2022/10/16 11:32:05;;;;;;;6.47;3.67;;;21.90;99.90;;;;;;5030319;28;20045;-70
2022/10/16 11:34:41;;;;;;;6.43;3.58;;;21.90;99.90;;;;;;5028890;28;20056;-70
2022/10/16 11:37:14;;;;;;;8.48;3.28;;;22.00;99.90;;;;;;5039719;28;20045;-70
2022/10/16 11:39:44;;;;;;;7.25;2.70;;;22.20;99.90;;;;;;5047921;28;20057;-70
2022/10/16 11:42:19;;;;;;;6.50;3.05;;;22.40;99.90;;;;;;5035155;28;20500;-70
2022/10/16 11:45:08;;;;;;;6.53;3.10;;;22.60;99.90;;;;;;4999650;28;20050;-69
2022/10/16 11:47:52;;;;;;;8.75;3.10;;;22.90;99.90;;;;;;5026784;28;20399;-69
2022/10/16 11:50:47;;;;;;;5.93;3.17;;;23.40;99.90;;;;;;5023923;28;20061;-69
2022/10/16 11:53:23;;;;;;;5.80;3.47;;;24.00;99.90;;;;;;4998354;28;20076;-69
2022/10/16 11:55:51;;;;;;;9.00;3.45;;;24.40;99.90;;;;;;5027980;28;20100;-70
2022/10/16 11:58:26;;;;;;;7.50;3.10;;;24.60;99.90;;;;;;5028624;28;20478;-70
2022/10/16 12:00:58;;;;;;;4.82;2.90;;;24.90;99.90;;;;;;5028317;28;20049;-70
2022/10/16 12:03:50;;;;;;;5.85;3.50;;;25.00;99.90;;;;;;5027490;28;20049;-70
2022/10/16 12:06:35;;;;;;;5.13;3.10;;;24.60;99.90;;;;;;5040769;28;21131;-71
2022/10/16 12:09:03;;;;;;;8.27;3.53;;;24.90;99.90;;;;;;5002933;28;20205;-70
2022/10/16 12:11:37;;;;;;;5.47;3.42;;;25.00;99.90;;;;;;5030351;28;20101;-70
2022/10/16 12:14:18;;;;;;;7.90;3.20;;;25.80;99.90;;;;;;5034360;28;20128;-70
2022/10/16 12:16:55;;;;;;;10.23;4.20;;;26.20;99.90;;;;;;5034508;28;20128;-72
2022/10/16 12:19:26;;;;;;;6.85;3.30;;;26.20;99.90;;;;;;5032198;28;20076;-70
2022/10/16 12:22:00;;;;;;;5.57;3.40;;;26.60;99.90;;;;;;5030669;28;20053;-70
2022/10/16 12:24:27;;;;;;;7.75;3.40;;;28.10;99.90;;;;;;5025631;28;20381;-70
2022/10/16 12:26:55;;;;;;;6.57;3.60;;;30.10;99.90;;;;;;5026170;28;20042;-70
2022/10/16 12:29:42;;;;;;;5.38;3.75;;;31.30;99.90;;;;;;5025337;28;20042;-70
2022/10/16 12:32:30;;;;;;;10.00;3.75;;;32.50;99.90;;;;;;5029646;28;20393;-71
2022/10/16 12:35:21;;;;;;;5.63;3.58;;;33.80;99.90;;;;;;5022882;28;20045;-71
2022/10/16 12:37:49;;;;;;;6.70;4.40;;;33.10;99.90;;;;;;5022152;28;20495;-70
2022/10/16 12:40:30;;;;;;;5.05;4.10;;;32.20;99.90;;;;;;5012842;28;20041;-71
2022/10/16 12:42:58;;;;;;;9.13;4.15;;;31.40;99.90;;;;;;5028905;28;20057;-71
2022/10/16 12:45:27;;;;;;;5.28;3.65;;;30.50;99.90;;;;;;5029969;28;20053;-70
2022/10/16 12:47:55;;;;;;;7.25;4.13;;;29.60;99.90;;;;;;5027349;28;20057;-71
2022/10/16 12:50:44;;;;;;;4.53;3.90;;;28.60;99.90;;;;;;5029282;28;20728;-70
2022/10/16 12:53:23;;;;;;;4.30;3.90;;;27.40;99.90;;;;;;5021948;28;20470;-70
2022/10/16 12:56:23;;;;;;;5.28;3.83;;;27.50;99.90;;;;;;5029260;28;20037;-70
2022/10/16 12:58:59;;;;;;;4.38;3.95;;;27.20;99.90;;;;;;5036409;28;20072;-70
2022/10/16 13:01:52;;;;;;;8.82;4.22;;;26.40;99.90;;;;;;5025345;28;20060;-71
2022/10/16 13:04:49;;;;;;;5.20;3.90;;;26.50;99.90;;;;;;5047155;28;20247;-70
2022/10/16 13:07:25;;;;;;;6.78;4.50;;;26.60;99.90;;;;;;5050035;28;20051;-71
2022/10/16 13:10:11;;;;;;;4.50;4.00;;;26.50;99.90;;;;;;5028428;28;20053;-69
2022/10/16 13:12:52;;;;;;;5.50;3.55;;;26.30;99.90;;;;;;5045307;28;20534;-70
2022/10/16 13:15:38;;;;;;;4.30;3.90;;;26.60;99.90;;;;;;5037113;28;20043;-70
2022/10/16 13:18:19;;;;;;;12.30;4.05;;;27.20;99.90;;;;;;5050259;28;20045;-71